createdAt,value
2023-01-03T00:02:24.488Z,101630.94
2023-01-03T00:04:54.479Z,101620.59
2023-01-03T00:07:36.043Z,101622.84
2023-01-03T00:10:11.491Z,101621.22
2023-01-03T00:12:40.225Z,101620.41
2023-01-03T00:15:11.525Z,101627.13
2023-01-03T00:17:43.532Z,101626.81
2023-01-03T00:20:14.366Z,101624.00
2023-01-03T00:22:44.935Z,101621.22
2023-01-03T00:25:17.728Z,101622.03
2023-01-03T00:27:47.993Z,101614.81
2023-01-03T00:30:18.228Z,101618.41
2023-01-03T00:32:48.803Z,101618.91
2023-01-03T00:35:19.509Z,101618.91
2023-01-03T00:37:49.966Z,101613.03
2023-01-03T00:40:22.346Z,101609.41
2023-01-03T00:43:09.575Z,101620.59
2023-01-03T00:45:39.670Z,101620.59
2023-01-03T00:48:10.583Z,101616.66
2023-01-03T00:50:41.655Z,101617.81
2023-01-03T00:53:12.053Z,101613.31
2023-01-03T00:55:44.192Z,101616.47
2023-01-03T00:58:14.677Z,101613.97
2023-01-03T01:00:45.292Z,101617.91
2023-01-03T01:03:18.250Z,101611.50
2023-01-03T01:05:48.844Z,101605.91
2023-01-03T01:08:19.248Z,101613.44
2023-01-03T01:11:04.245Z,101608.69
2023-01-03T01:13:36.252Z,101606.19
2023-01-03T01:16:11.212Z,101608.19
2023-01-03T01:18:43.436Z,101607.69
2023-01-03T01:21:16.933Z,101609.66
2023-01-03T01:23:48.630Z,101606.34
2023-01-03T01:26:23.822Z,101603.56
2023-01-03T01:28:55.921Z,101600.75
2023-01-03T01:31:29.632Z,101602.75
2023-01-03T01:34:00.975Z,101593.50
2023-01-03T01:36:34.726Z,101596.31
2023-01-03T01:39:08.376Z,101594.66
2023-01-03T01:41:58.753Z,101583.81
2023-01-03T01:44:56.687Z,101588.06
2023-01-03T01:47:47.655Z,101585.91
2023-01-03T01:50:26.541Z,101585.41
2023-01-03T01:53:04.756Z,101591.31
2023-01-03T01:55:41.839Z,101579.00
2023-01-03T01:58:14.942Z,101586.53
2023-01-03T02:00:47.718Z,101580.66
2023-01-03T02:03:17.803Z,101584.25
2023-01-03T02:05:54.217Z,101588.72
2023-01-03T02:14:02.396Z,101601.22
2023-01-03T02:16:57.647Z,101591.69
2023-01-03T02:20:05.687Z,101588.88
2023-01-03T02:23:17.626Z,101599.25
2023-01-03T02:26:33.326Z,101597.09
2023-01-03T02:29:47.166Z,101600.69
2023-01-03T02:35:05.347Z,101592.81
2023-01-03T02:37:43.227Z,101613.25
2023-01-03T02:40:26.047Z,101611.25
2023-01-03T02:46:03.073Z,101608.28
2023-01-03T02:48:54.402Z,101606.94
2023-01-03T02:51:31.857Z,101614.84
2023-01-03T02:54:05.655Z,101607.59
2023-01-03T02:56:45.775Z,101605.13
2023-01-03T02:59:22.957Z,101618.59
2023-01-03T03:01:55.370Z,101619.72
2023-01-03T03:04:28.920Z,101610.50
2023-01-03T03:07:11.033Z,101615.28
2023-01-03T03:10:02.321Z,101617.56
2023-01-03T03:12:53.335Z,101622.34
2023-01-03T03:15:28.350Z,101629.88
2023-01-03T03:18:08.251Z,101617.88
2023-01-03T03:20:57.451Z,101619.03
2023-01-03T03:23:50.149Z,101615.44
2023-01-03T03:26:28.013Z,101617.38
2023-01-03T03:29:03.505Z,101623.47
2023-01-03T03:31:42.615Z,101622.84
2023-01-03T03:34:18.828Z,101625.00
2023-01-03T03:36:57.080Z,101629.94
2023-01-03T03:39:46.814Z,101628.81
2023-01-03T03:42:42.765Z,101624.34
2023-01-03T03:45:20.446Z,101619.59
2023-01-03T03:48:29.636Z,101623.22
2023-01-03T03:51:09.509Z,101627.50
2023-01-03T03:53:45.965Z,101627.16
2023-01-03T03:56:21.918Z,101626.00
2023-01-03T03:59:00.018Z,101624.88
2023-01-03T04:01:32.704Z,101629.31
2023-01-03T04:04:10.616Z,101627.84
2023-01-03T04:06:52.781Z,101632.59
2023-01-03T04:09:25.605Z,101643.78
2023-01-03T04:11:56.115Z,101636.88
2023-01-03T04:14:26.275Z,101638.84
2023-01-03T04:16:56.817Z,101641.94
2023-01-03T04:19:26.899Z,101647.88
2023-01-03T04:21:57.662Z,101646.53
2023-01-03T04:24:30.774Z,101647.16
2023-01-03T04:27:01.152Z,101640.59
2023-01-03T04:29:37.081Z,101649.78
2023-01-03T04:32:10.557Z,101653.38
2023-01-03T04:34:41.380Z,101650.59
2023-01-03T04:37:11.966Z,101653.09
2023-01-03T04:39:44.332Z,101655.56
2023-01-03T04:42:27.851Z,101656.41
2023-01-03T04:44:58.364Z,101657.22
2023-01-03T04:47:28.934Z,101658.03
2023-01-03T04:49:59.175Z,101658.88
2023-01-03T04:52:29.884Z,101664.97
2023-01-03T04:55:02.327Z,101666.63
2023-01-03T04:57:32.936Z,101665.50
2023-01-03T05:00:04.352Z,101674.88
2023-01-03T05:02:34.505Z,101674.53
2023-01-03T05:05:04.635Z,101679.84
2023-01-03T05:07:35.380Z,101689.56
2023-01-03T05:10:08.745Z,101686.75
2023-01-03T05:12:39.276Z,101676.19
2023-01-03T05:15:11.031Z,101680.47
2023-01-03T05:17:41.800Z,101686.06
2023-01-03T05:20:30.036Z,101680.47
2023-01-03T05:23:17.157Z,101683.59
2023-01-03T05:25:52.494Z,101687.53
2023-01-03T05:28:25.697Z,101695.59
2023-01-03T05:30:56.287Z,101694.78
2023-01-03T05:33:26.349Z,101698.91
2023-01-03T05:38:26.806Z,101700.72
2023-01-03T05:40:59.067Z,101703.72
2023-01-03T05:43:29.478Z,101692.53
2023-01-03T05:46:00.128Z,101695.31
2023-01-03T05:48:30.371Z,101695.31
2023-01-03T05:51:01.309Z,101700.91
2023-01-03T05:53:31.961Z,101698.97
2023-01-03T05:56:08.189Z,101704.22
2023-01-03T05:58:38.161Z,101704.22
2023-01-03T06:01:13.738Z,101705.88
2023-01-03T06:03:48.184Z,101703.59
2023-01-03T06:06:19.542Z,101711.66
2023-01-03T06:08:50.300Z,101711.03
2023-01-03T06:11:22.869Z,101715.16
2023-01-03T06:13:53.448Z,101704.50
2023-01-03T06:16:41.738Z,101697.97
2023-01-03T06:19:12.509Z,101710.03
2023-01-03T06:21:43.084Z,101710.75
2023-01-03T06:24:14.015Z,101705.25
2023-01-03T06:26:46.126Z,101706.00
2023-01-03T06:29:16.689Z,101709.28
2023-01-03T06:31:46.896Z,101706.84
2023-01-03T06:34:17.722Z,101706.06
2023-01-03T06:36:47.739Z,101708.09
2023-01-03T06:39:18.276Z,101709.22
2023-01-03T06:41:50.855Z,101709.03
2023-01-03T06:44:21.020Z,101713.63
2023-01-03T06:47:07.914Z,101708.44
2023-01-03T06:50:10.127Z,101718.94
2023-01-03T06:52:57.115Z,101709.44
2023-01-03T06:55:27.286Z,101713.94
2023-01-03T06:57:59.228Z,101714.47
2023-01-03T07:00:29.536Z,101712.03
2023-01-03T07:03:03.160Z,101714.38
2023-01-03T07:05:37.843Z,101718.66
2023-01-03T07:08:08.487Z,101710.16
2023-01-03T07:10:39.058Z,101719.78
2023-01-03T07:13:28.289Z,101716.88
2023-01-03T07:15:58.801Z,101709.84
2023-01-03T07:18:29.635Z,101716.69
2023-01-03T07:21:00.032Z,101710.59
2023-01-03T07:23:30.490Z,101717.44
2023-01-03T07:26:01.028Z,101711.78
2023-01-03T07:28:33.285Z,101705.78
2023-01-03T07:31:06.106Z,101706.94
2023-01-03T07:33:41.269Z,101706.94
2023-01-03T07:36:14.324Z,101711.03
2023-01-03T07:38:47.877Z,101718.63
2023-01-03T07:41:19.474Z,101704.00
2023-01-03T07:43:51.431Z,101709.13
2023-01-03T07:46:28.640Z,101705.78
2023-01-03T07:49:08.021Z,101703.75
2023-01-03T07:51:42.097Z,101704.97
2023-01-03T07:54:12.302Z,101694.44
2023-01-03T07:56:44.545Z,101697.25
2023-01-03T07:59:16.898Z,101696.00
2023-01-03T08:01:47.583Z,101688.25
2023-01-03T08:04:17.897Z,101683.66
2023-01-03T08:06:48.364Z,101685.47
2023-01-03T08:09:31.923Z,101682.47
2023-01-03T08:12:18.944Z,101686.75
2023-01-03T08:14:54.276Z,101678.50
2023-01-03T08:17:24.854Z,101673.53
2023-01-03T08:19:55.459Z,101670.56
2023-01-03T08:22:30.191Z,101659.56
2023-01-03T08:25:10.032Z,101660.00
2023-01-03T08:27:44.011Z,101664.03
2023-01-03T08:30:24.486Z,101658.78
2023-01-03T08:32:56.884Z,101653.44
2023-01-03T08:35:30.362Z,101659.41
2023-01-03T08:38:04.779Z,101648.78
2023-01-03T08:40:42.065Z,101639.09
2023-01-03T08:43:18.732Z,101643.97
2023-01-03T08:45:52.492Z,101632.59
2023-01-03T08:48:24.752Z,101646.31
2023-01-03T08:50:55.644Z,101658.00
2023-01-03T08:53:26.284Z,101643.88
2023-01-03T08:55:57.089Z,101645.03
2023-01-03T08:58:27.173Z,101637.59
2023-01-03T09:01:07.642Z,101626.31
2023-01-03T09:03:38.132Z,101622.38
2023-01-03T09:06:11.133Z,101622.81
2023-01-03T09:08:41.850Z,101611.91
2023-01-03T09:11:14.238Z,101615.53
2023-01-03T09:13:44.337Z,101605.03
2023-01-03T09:16:18.909Z,101604.56
2023-01-03T09:18:49.525Z,101611.00
2023-01-03T09:21:22.026Z,101605.31
2023-01-03T09:23:52.487Z,101594.31
2023-01-03T09:26:26.412Z,101611.44
2023-01-03T09:28:56.391Z,101595.25
2023-01-03T09:31:34.898Z,101592.06
2023-01-03T09:34:06.102Z,101575.59
2023-01-03T09:36:39.016Z,101571.78
2023-01-03T09:39:10.233Z,101566.81
2023-01-03T09:41:43.739Z,101568.72
2023-01-03T09:44:15.907Z,101556.06
2023-01-03T09:46:48.701Z,101559.56
2023-01-03T09:49:19.956Z,101545.25
2023-01-03T09:52:07.218Z,101545.50
2023-01-03T09:54:58.688Z,101548.50
2023-01-03T09:57:50.728Z,101532.97
2023-01-03T10:00:46.619Z,101525.50
2023-01-03T10:03:51.988Z,101513.91
2023-01-03T10:06:42.441Z,101504.81
2023-01-03T10:09:29.693Z,101513.13
2023-01-03T10:12:19.052Z,101514.09
2023-01-03T10:15:16.376Z,101511.81
2023-01-03T10:18:02.246Z,101493.31
2023-01-03T10:20:50.135Z,101498.31
2023-01-03T10:23:34.761Z,101493.69
2023-01-03T10:26:12.987Z,101484.19
2023-01-03T10:28:48.019Z,101482.00
2023-01-03T10:31:42.648Z,101474.97
2023-01-03T10:34:14.432Z,101463.91
2023-01-03T10:36:45.806Z,101450.56
2023-01-03T10:39:16.808Z,101454.09
2023-01-03T10:41:52.667Z,101452.81
2023-01-03T10:44:29.565Z,101453.06
2023-01-03T10:47:03.256Z,101433.59
2023-01-03T10:49:33.494Z,101447.16
2023-01-03T10:52:15.306Z,101423.28
2023-01-03T10:55:21.082Z,101430.00
2023-01-03T10:58:03.566Z,101433.81
2023-01-03T11:00:37.809Z,101430.78
2023-01-03T11:03:18.640Z,101422.59
2023-01-03T11:05:53.143Z,101421.19
2023-01-03T11:08:41.005Z,101419.44
2023-01-03T11:11:31.841Z,101422.97
2023-01-03T11:14:27.203Z,101418.41
2023-01-03T11:17:01.756Z,101417.84
2023-01-03T11:19:35.122Z,101412.94
2023-01-03T11:22:16.926Z,101408.38
2023-01-03T11:25:38.124Z,101401.00
2023-01-03T11:28:52.099Z,101414.59
2023-01-03T11:31:48.715Z,101412.03
2023-01-03T11:35:20.949Z,101389.38
2023-01-03T11:37:51.108Z,101385.66
2023-01-03T11:40:39.096Z,101386.69
2023-01-03T11:43:33.636Z,101382.59
2023-01-03T11:46:35.087Z,101368.78
2023-01-03T11:49:32.274Z,101367.47
2023-01-03T11:52:24.040Z,101377.94
2023-01-03T11:55:49.556Z,101356.59
2023-01-03T11:59:01.151Z,101359.25
2023-01-03T12:01:57.773Z,101365.25
2023-01-03T12:04:32.493Z,101369.94
2023-01-03T12:10:19.210Z,101358.94
2023-01-03T12:13:26.922Z,101361.28
2023-01-03T12:16:09.549Z,101358.38
2023-01-03T12:18:52.660Z,101370.81
2023-01-03T12:21:37.323Z,101354.25
2023-01-03T12:24:19.995Z,101357.78
2023-01-03T12:27:02.892Z,101358.97
2023-01-03T12:29:50.085Z,101362.94
2023-01-03T12:32:31.149Z,101353.22
2023-01-03T12:35:26.439Z,101356.75
2023-01-03T12:38:00.251Z,101362.75
2023-01-03T12:40:45.602Z,101362.25
2023-01-03T12:43:28.017Z,101363.06
2023-01-03T12:46:23.264Z,101368.69
2023-01-03T12:49:04.959Z,101373.03
2023-01-03T12:51:36.270Z,101368.94
2023-01-03T12:54:28.439Z,101369.28
2023-01-03T12:57:58.757Z,101366.38
2023-01-03T13:00:46.738Z,101362.25
2023-01-03T13:03:27.010Z,101359.09
2023-01-03T13:06:03.381Z,101364.72
2023-01-03T13:08:42.253Z,101366.38
2023-01-03T13:11:24.623Z,101360.72
2023-01-03T13:13:59.916Z,101361.09
2023-01-03T13:16:51.803Z,101372.72
2023-01-03T13:19:54.723Z,101367.78
2023-01-03T13:22:54.659Z,101372.47
2023-01-03T13:25:42.634Z,101357.47
2023-01-03T13:28:33.865Z,101360.19
2023-01-03T13:31:43.593Z,101368.00
2023-01-03T13:34:35.016Z,101368.69
2023-01-03T13:37:23.977Z,101377.34
2023-01-03T13:41:07.673Z,101369.97
2023-01-03T13:43:24.207Z,101373.50
2023-01-03T13:46:01.515Z,101387.06
2023-01-03T13:48:57.937Z,101383.31
2023-01-03T13:51:51.605Z,101383.19
2023-01-03T13:54:56.578Z,101381.06
2023-01-03T13:57:55.644Z,101383.44
2023-01-03T14:00:27.634Z,101387.41
2023-01-03T14:03:40.671Z,101389.06
2023-01-03T14:06:57.220Z,101392.19
2023-01-03T14:09:55.497Z,101388.94
2023-01-03T14:13:09.785Z,101384.00
2023-01-03T14:15:44.067Z,101390.78
2023-01-03T14:18:24.259Z,101382.34
2023-01-03T14:21:00.487Z,101385.53
2023-01-03T14:23:59.171Z,101388.34
2023-01-03T14:26:27.130Z,101389.50
2023-01-03T14:28:58.373Z,101381.41
2023-01-03T14:31:31.638Z,101382.22
2023-01-03T14:34:18.040Z,101392.63
2023-01-03T14:36:54.102Z,101389.38
2023-01-03T14:42:06.539Z,101387.94
2023-01-03T14:44:37.798Z,101384.66
2023-01-03T14:47:18.161Z,101389.34
2023-01-03T14:49:54.593Z,101389.34
2023-01-03T14:52:34.798Z,101389.66
2023-01-03T14:55:09.340Z,101386.41
2023-01-03T14:57:45.740Z,101390.03
2023-01-03T15:00:29.995Z,101394.47
2023-01-03T15:03:11.861Z,101397.66
2023-01-03T15:05:43.888Z,101409.69
2023-01-03T15:08:29.007Z,101408.53
2023-01-03T15:11:04.544Z,101410.50
2023-01-03T15:13:42.569Z,101414.16
2023-01-03T15:16:27.749Z,101409.69
2023-01-03T15:19:10.265Z,101410.88
2023-01-03T15:21:42.735Z,101409.56
2023-01-03T15:24:19.467Z,101410.25
2023-01-03T15:26:52.624Z,101405.78
2023-01-03T15:29:29.032Z,101417.38
2023-01-03T15:32:13.949Z,101429.75
2023-01-03T15:34:45.592Z,101431.78
2023-01-03T15:37:24.891Z,101431.78
2023-01-03T15:39:59.124Z,101436.06
2023-01-03T15:42:57.981Z,101429.63
2023-01-03T15:45:40.207Z,101430.31
2023-01-03T15:48:22.283Z,101437.47
2023-01-03T15:50:56.259Z,101440.13
2023-01-03T15:53:31.384Z,101435.56
2023-01-03T15:56:08.004Z,101434.44
2023-01-03T15:58:40.155Z,101440.97
2023-01-03T16:01:15.192Z,101443.50
2023-01-03T16:03:46.490Z,101451.63
2023-01-03T16:06:17.062Z,101456.63
2023-01-03T16:08:48.575Z,101454.03
2023-01-03T16:11:25.552Z,101456.34
2023-01-03T16:14:02.875Z,101462.31
2023-01-03T16:16:42.963Z,101459.84
2023-01-03T16:19:22.841Z,101468.59
2023-01-03T16:22:32.856Z,101460.84
2023-01-03T16:24:51.535Z,101467.47
2023-01-03T16:27:26.047Z,101464.84
2023-01-03T16:29:56.109Z,101484.00
2023-01-03T16:32:35.997Z,101478.56
2023-01-03T16:35:29.977Z,101482.75
2023-01-03T16:38:00.187Z,101486.06
2023-01-03T16:40:35.840Z,101491.53
2023-01-03T16:43:10.525Z,101495.00
2023-01-03T16:45:47.336Z,101491.25
2023-01-03T16:48:24.373Z,101499.53
2023-01-03T16:50:57.297Z,101488.47
2023-01-03T16:53:37.774Z,101498.75
2023-01-03T16:56:14.053Z,101485.72
2023-01-03T16:58:44.122Z,101490.84
2023-01-03T17:01:14.991Z,101493.50
2023-01-03T17:03:47.688Z,101486.56
2023-01-03T17:06:37.615Z,101480.47
2023-01-03T17:09:16.645Z,101486.91
2023-01-03T17:11:47.565Z,101485.25
2023-01-03T17:14:22.094Z,101489.34
2023-01-03T17:16:53.560Z,101489.03
2023-01-03T17:20:02.724Z,101496.75
2023-01-03T17:22:21.510Z,101490.34
2023-01-03T17:24:53.873Z,101492.34
2023-01-03T17:27:33.016Z,101479.78
2023-01-03T17:30:06.841Z,101482.44
2023-01-03T17:32:37.261Z,101486.91
2023-01-03T17:35:15.822Z,101484.59
2023-01-03T17:40:38.683Z,101486.91
2023-01-03T17:43:08.426Z,101487.56
2023-01-03T17:45:55.344Z,101479.84
2023-01-03T17:48:42.017Z,101479.16
2023-01-03T17:51:14.351Z,101474.88
2023-01-03T17:53:45.638Z,101464.34
2023-01-03T17:56:22.190Z,101482.63
2023-01-03T17:58:56.436Z,101472.09
2023-01-03T18:01:27.427Z,101474.75
2023-01-03T18:03:58.025Z,101468.66
2023-01-03T18:06:30.080Z,101476.22
2023-01-03T18:09:00.803Z,101474.25
2023-01-03T18:11:31.092Z,101482.31
2023-01-03T18:14:01.643Z,101471.59
2023-01-03T18:16:31.966Z,101474.91
2023-01-03T18:19:02.264Z,101469.47
2023-01-03T18:21:36.685Z,101476.72
2023-01-03T18:24:17.304Z,101479.16
2023-01-03T18:26:53.473Z,101476.03
2023-01-03T18:29:23.470Z,101475.72
2023-01-03T18:31:53.825Z,101477.34
2023-01-03T18:34:24.151Z,101474.22
2023-01-03T18:36:56.687Z,101473.88
2023-01-03T18:39:31.426Z,101479.47
2023-01-03T18:42:22.173Z,101478.66
2023-01-03T18:44:52.457Z,101478.50
2023-01-03T18:47:23.779Z,101483.78
2023-01-03T18:49:54.711Z,101487.88
2023-01-03T18:52:34.239Z,101479.97
2023-01-03T18:55:04.867Z,101492.03
2023-01-03T18:57:34.894Z,101488.88
2023-01-03T19:00:07.207Z,101497.28
2023-01-03T19:02:38.769Z,101501.25
2023-01-03T19:05:11.264Z,101495.47
2023-01-03T19:07:46.420Z,101493.03
2023-01-03T19:10:25.240Z,101500.94
2023-01-03T19:12:59.409Z,101493.53
2023-01-03T19:15:31.038Z,101503.75
2023-01-03T19:18:01.895Z,101504.41
2023-01-03T19:20:32.616Z,101499.13
2023-01-03T19:23:04.516Z,101510.69
2023-01-03T19:25:35.467Z,101513.81
2023-01-03T19:28:07.082Z,101513.34
2023-01-03T19:30:41.914Z,101513.34
2023-01-03T19:33:19.663Z,101509.69
2023-01-03T19:35:51.429Z,101512.84
2023-01-03T19:38:23.034Z,101505.59
2023-01-03T19:40:53.503Z,101509.03
2023-01-03T19:43:25.797Z,101502.94
2023-01-03T19:45:55.697Z,101496.03
2023-01-03T19:48:28.061Z,101492.88
2023-01-03T19:50:58.038Z,101484.16
2023-01-03T19:53:29.644Z,101491.41
2023-01-03T19:56:00.296Z,101478.56
2023-01-03T19:58:35.158Z,101472.97
2023-01-03T20:01:06.813Z,101482.53
2023-01-03T20:03:40.738Z,101474.13
2023-01-03T20:06:15.749Z,101469.31
2023-01-03T20:08:48.355Z,101471.31
2023-01-03T20:11:23.340Z,101465.72
2023-01-03T20:13:53.594Z,101463.72
2023-01-03T20:16:24.324Z,101453.00
2023-01-03T20:18:54.775Z,101458.44
2023-01-03T20:21:34.302Z,101458.59
2023-01-03T20:24:09.815Z,101460.75
2023-01-03T20:26:40.421Z,101460.41
2023-01-03T20:29:13.157Z,101454.94
2023-01-03T20:31:43.522Z,101453.78
2023-01-03T20:34:14.033Z,101446.19
2023-01-03T20:36:49.629Z,101446.53
2023-01-03T20:39:28.479Z,101443.25
2023-01-03T20:42:03.488Z,101453.63
2023-01-03T20:44:34.394Z,101440.78
2023-01-03T20:47:06.638Z,101440.44
2023-01-03T20:49:40.583Z,101432.72
2023-01-03T20:52:18.669Z,101440.94
2023-01-03T20:54:50.604Z,101442.28
2023-01-03T20:57:22.214Z,101438.84
2023-01-03T20:59:52.385Z,101441.84
2023-01-03T21:02:23.013Z,101440.50
2023-01-03T21:04:53.475Z,101439.19
2023-01-03T21:07:52.230Z,101440.69
2023-01-03T21:10:26.026Z,101439.69
2023-01-03T21:12:56.000Z,101437.56
2023-01-03T21:15:26.292Z,101439.88
2023-01-03T21:17:56.088Z,101433.44
2023-01-03T21:20:29.730Z,101435.09
2023-01-03T21:23:00.443Z,101435.91
2023-01-03T21:25:35.983Z,101443.31
2023-01-03T21:28:07.133Z,101436.41
2023-01-03T21:30:37.169Z,101431.13
2023-01-03T21:33:07.352Z,101428.66
2023-01-03T21:35:41.325Z,101427.38
2023-01-03T21:38:13.355Z,101433.09
2023-01-03T21:40:45.315Z,101423.72
2023-01-03T21:43:15.752Z,101432.78
2023-01-03T21:45:48.823Z,101426.34
2023-01-03T21:48:20.660Z,101428.31
2023-01-03T21:50:52.068Z,101422.72
2023-01-03T21:53:25.274Z,101426.66
2023-01-03T21:55:56.965Z,101420.25
2023-01-03T21:58:27.170Z,101438.22
2023-01-03T22:00:57.671Z,101420.91
2023-01-03T22:03:46.886Z,101414.00
2023-01-03T22:06:16.788Z,101409.56
2023-01-03T22:08:54.749Z,101412.34
2023-01-03T22:11:28.262Z,101408.75
2023-01-03T22:14:02.217Z,101408.41
2023-01-03T22:16:32.810Z,101398.69
2023-01-03T22:19:02.669Z,101395.06
2023-01-03T22:21:34.305Z,101399.00
2023-01-03T22:24:04.374Z,101394.56
2023-01-03T22:26:35.925Z,101393.41
2023-01-03T22:29:07.859Z,101386.66
2023-01-03T22:31:38.151Z,101382.72
2023-01-03T22:34:08.533Z,101390.47
2023-01-03T22:36:38.891Z,101394.22
2023-01-03T22:39:09.195Z,101392.41
2023-01-03T22:41:41.591Z,101397.38
2023-01-03T22:44:12.622Z,101397.84
2023-01-03T22:46:43.364Z,101394.72
2023-01-03T22:49:13.923Z,101392.44
2023-01-03T22:51:44.160Z,101391.28
2023-01-03T22:54:14.440Z,101394.56
2023-01-03T22:56:46.669Z,101393.09
2023-01-03T22:59:16.737Z,101396.38
2023-01-03T23:01:47.302Z,101398.84
2023-01-03T23:04:19.491Z,101410.22
2023-01-03T23:06:49.571Z,101397.50
2023-01-03T23:09:19.934Z,101392.75
2023-01-03T23:12:09.490Z,101398.00
2023-01-03T23:14:39.322Z,101403.63
2023-01-03T23:17:26.658Z,101396.88
2023-01-03T23:19:56.488Z,101398.16
2023-01-03T23:22:27.116Z,101402.28
2023-01-03T23:24:58.288Z,101402.78
2023-01-03T23:27:30.178Z,101398.81
2023-01-03T23:30:00.161Z,101404.06
2023-01-03T23:32:30.855Z,101395.34
2023-01-03T23:35:01.400Z,101402.59
2023-01-03T23:37:32.137Z,101391.06
2023-01-03T23:40:03.265Z,101394.66
2023-01-03T23:42:35.731Z,101392.00
2023-01-03T23:45:07.155Z,101386.09
2023-01-03T23:47:37.611Z,101387.41
2023-01-03T23:50:08.317Z,101391.03
2023-01-03T23:52:38.567Z,101409.16
2023-01-03T23:55:12.638Z,101405.19
2023-01-03T23:57:44.924Z,101405.66
